KOTM/OTM METAR and TAF weather

Enter ICAO airport designator
Station Type Date Time Source
KOTM METAR 2019/06/26 19:53 UTC NOAA

KOTM 261953Z AUTO 00000KT 10SM CLR 29/22 A3001 RMK AO2 SLP156 T02940222


Station Type Date Time Source
KOTM Decoded METAR 2019/06/26 19:53 UTC NOAA

OTTUMWA INDUSTRIAL AIRPORT, IA, United States (KOTM) 41-06N 092-27W 256M
Jun 26, 2019 - 03:53 PM EDT / 2019.06.26 1953 UTC
Wind: Calm:0
Visibility: 10 mile(s):0
Sky conditions: clear
Temperature: 84.9 F (29.4 C)
Dew Point: 72.0 F (22.2 C)
Relative Humidity: 65%
Pressure (altimeter): 30.01 in. Hg (1016 hPa)
ob: KOTM 261953Z AUTO 00000KT 10SM CLR 29/22 A3001 RMK AO2 SLP156 T02940222
cycle: 20

Station Type Date Time Source
KOTM TAF 2019/06/26 18:21 UTC NOAA

TAF KOTM 261720Z 2618/2718 15005KT P6SM BKN250
FM271500 21007KT P6SM BKN080

Example: see airport list